sensor_id;sensor_type;location;lat;lon;timestamp;P1;durP1;ratioP1;P2;durP2;ratioP2
9938;SDS011;5008;50.656;7.188;2023-08-30T04:02:25;5.95;;;5.53;;
9938;SDS011;5008;50.656;7.188;2023-08-30T04:04:52;5.85;;;5.35;;
9938;SDS011;5008;50.656;7.188;2023-08-30T04:07:19;6.28;;;5.50;;
9938;SDS011;5008;50.656;7.188;2023-08-30T04:09:46;6.40;;;5.50;;
9938;SDS011;5008;50.656;7.188;2023-08-30T04:12:13;5.63;;;5.20;;
9938;SDS011;5008;50.656;7.188;2023-08-30T04:14:39;6.55;;;5.95;;
9938;SDS011;5008;50.656;7.188;2023-08-30T04:17:07;5.82;;;5.32;;
9938;SDS011;5008;50.656;7.188;2023-08-30T04:19:35;6.85;;;6.25;;
9938;SDS011;5008;50.656;7.188;2023-08-30T04:22:01;6.80;;;6.10;;
9938;SDS011;5008;50.656;7.188;2023-08-30T04:24:28;6.65;;;6.05;;
9938;SDS011;5008;50.656;7.188;2023-08-30T04:26:55;6.65;;;6.05;;
9938;SDS011;5008;50.656;7.188;2023-08-30T04:29:22;6.80;;;6.13;;
9938;SDS011;5008;50.656;7.188;2023-08-30T04:31:50;6.70;;;6.10;;
9938;SDS011;5008;50.656;7.188;2023-08-30T04:34:17;6.13;;;5.63;;
9938;SDS011;5008;50.656;7.188;2023-08-30T04:36:46;7.47;;;6.70;;
9938;SDS011;5008;50.656;7.188;2023-08-30T04:39:13;7.15;;;6.50;;
9938;SDS011;5008;50.656;7.188;2023-08-30T04:41:40;6.75;;;6.15;;
9938;SDS011;5008;50.656;7.188;2023-08-30T04:44:07;6.55;;;6.03;;
9938;SDS011;5008;50.656;7.188;2023-08-30T04:46:35;7.10;;;6.47;;
9938;SDS011;5008;50.656;7.188;2023-08-30T04:49:02;7.15;;;6.45;;
9938;SDS011;5008;50.656;7.188;2023-08-30T04:51:29;7.05;;;6.35;;
9938;SDS011;5008;50.656;7.188;2023-08-30T04:53:58;7.65;;;6.18;;
9938;SDS011;5008;50.656;7.188;2023-08-30T04:56:24;6.85;;;6.25;;
9938;SDS011;5008;50.656;7.188;2023-08-30T04:58:51;7.20;;;6.50;;
9938;SDS011;5008;50.656;7.188;2023-08-30T05:01:18;7.05;;;6.45;;
9938;SDS011;5008;50.656;7.188;2023-08-30T05:03:45;7.07;;;6.37;;
9938;SDS011;5008;50.656;7.188;2023-08-30T05:06:12;8.25;;;7.55;;
9938;SDS011;5008;50.656;7.188;2023-08-30T05:08:41;7.68;;;6.97;;
9938;SDS011;5008;50.656;7.188;2023-08-30T05:11:09;7.63;;;6.82;;
9938;SDS011;5008;50.656;7.188;2023-08-30T05:13:36;8.37;;;7.43;;
9938;SDS011;5008;50.656;7.188;2023-08-30T05:16:03;6.97;;;6.38;;
9938;SDS011;5008;50.656;7.188;2023-08-30T05:18:33;7.45;;;6.75;;
9938;SDS011;5008;50.656;7.188;2023-08-30T05:21:00;7.40;;;6.80;;
9938;SDS011;5008;50.656;7.188;2023-08-30T05:23:28;7.40;;;6.70;;
9938;SDS011;5008;50.656;7.188;2023-08-30T05:25:55;8.25;;;7.55;;
9938;SDS011;5008;50.656;7.188;2023-08-30T05:28:23;8.60;;;7.80;;
9938;SDS011;5008;50.656;7.188;2023-08-30T05:30:50;8.30;;;7.50;;
9938;SDS011;5008;50.656;7.188;2023-08-30T05:33:17;8.43;;;7.63;;
9938;SDS011;5008;50.656;7.188;2023-08-30T05:35:44;8.30;;;7.50;;
9938;SDS011;5008;50.656;7.188;2023-08-30T05:38:11;8.35;;;7.60;;
9938;SDS011;5008;50.656;7.188;2023-08-30T05:40:38;8.38;;;7.63;;
9938;SDS011;5008;50.656;7.188;2023-08-30T05:43:07;7.47;;;6.88;;
9938;SDS011;5008;50.656;7.188;2023-08-30T05:45:35;8.45;;;7.00;;
9938;SDS011;5008;50.656;7.188;2023-08-30T05:48:03;7.15;;;6.45;;
9938;SDS011;5008;50.656;7.188;2023-08-30T05:50:30;7.00;;;6.40;;
9938;SDS011;5008;50.656;7.188;2023-08-30T05:52:57;7.38;;;6.72;;
9938;SDS011;5008;50.656;7.188;2023-08-30T05:55:24;8.02;;;7.22;;
9938;SDS011;5008;50.656;7.188;2023-08-30T05:57:51;7.88;;;7.18;;
9938;SDS011;5008;50.656;7.188;2023-08-30T06:00:18;8.48;;;7.75;;
9938;SDS011;5008;50.656;7.188;2023-08-30T06:02:47;7.25;;;6.65;;
9938;SDS011;5008;50.656;7.188;2023-08-30T06:05:16;10.30;;;8.20;;
9938;SDS011;5008;50.656;7.188;2023-08-30T06:07:43;9.13;;;8.32;;
9938;SDS011;5008;50.656;7.188;2023-08-30T06:10:10;9.27;;;8.38;;
9938;SDS011;5008;50.656;7.188;2023-08-30T06:12:36;8.73;;;7.45;;
9938;SDS011;5008;50.656;7.188;2023-08-30T06:15:04;8.75;;;7.97;;
9938;SDS011;5008;50.656;7.188;2023-08-30T06:17:31;9.93;;;8.93;;
9938;SDS011;5008;50.656;7.188;2023-08-30T06:19:59;10.80;;;9.80;;
9938;SDS011;5008;50.656;7.188;2023-08-30T06:22:27;9.48;;;8.52;;
9938;SDS011;5008;50.656;7.188;2023-08-30T06:24:54;10.55;;;9.55;;
9938;SDS011;5008;50.656;7.188;2023-08-30T06:27:22;10.90;;;9.90;;
9938;SDS011;5008;50.656;7.188;2023-08-30T06:29:49;11.10;;;10.10;;
9938;SDS011;5008;50.656;7.188;2023-08-30T06:32:17;12.05;;;10.73;;
9938;SDS011;5008;50.656;7.188;2023-08-30T06:34:45;10.20;;;9.30;;
9938;SDS011;5008;50.656;7.188;2023-08-30T06:40:12;9.77;;;8.88;;
9938;SDS011;5008;50.656;7.188;2023-08-30T06:42:45;10.15;;;9.15;;
9938;SDS011;5008;50.656;7.188;2023-08-30T06:45:12;10.30;;;9.32;;
9938;SDS011;5008;50.656;7.188;2023-08-30T06:47:50;9.10;;;8.23;;
9938;SDS011;5008;50.656;7.188;2023-08-30T06:50:18;8.80;;;8.00;;
9938;SDS011;5008;50.656;7.188;2023-08-30T06:53:13;9.10;;;8.20;;
9938;SDS011;5008;50.656;7.188;2023-08-30T06:55:40;9.10;;;8.30;;
9938;SDS011;5008;50.656;7.188;2023-08-30T06:58:09;9.18;;;8.27;;
9938;SDS011;5008;50.656;7.188;2023-08-30T07:00:48;10.10;;;8.20;;
9938;SDS011;5008;50.656;7.188;2023-08-30T07:03:16;8.68;;;7.88;;
9938;SDS011;5008;50.656;7.188;2023-08-30T07:05:47;9.20;;;8.32;;
9938;SDS011;5008;50.656;7.188;2023-08-30T07:08:18;8.40;;;7.70;;
9938;SDS011;5008;50.656;7.188;2023-08-30T07:10:45;8.25;;;7.47;;
9938;SDS011;5008;50.656;7.188;2023-08-30T07:13:14;8.77;;;7.70;;
9938;SDS011;5008;50.656;7.188;2023-08-30T07:15:42;7.68;;;7.00;;
9938;SDS011;5008;50.656;7.188;2023-08-30T07:18:09;8.32;;;7.53;;
9938;SDS011;5008;50.656;7.188;2023-08-30T07:20:38;7.60;;;6.78;;
9938;SDS011;5008;50.656;7.188;2023-08-30T07:23:05;8.23;;;7.43;;
9938;SDS011;5008;50.656;7.188;2023-08-30T07:25:37;7.90;;;7.10;;
9938;SDS011;5008;50.656;7.188;2023-08-30T07:28:04;7.50;;;6.90;;
9938;SDS011;5008;50.656;7.188;2023-08-30T07:30:31;7.35;;;6.65;;
9938;SDS011;5008;50.656;7.188;2023-08-30T07:33:00;7.20;;;6.20;;
9938;SDS011;5008;50.656;7.188;2023-08-30T07:35:27;8.57;;;6.88;;
9938;SDS011;5008;50.656;7.188;2023-08-30T07:37:55;7.28;;;6.57;;
9938;SDS011;5008;50.656;7.188;2023-08-30T07:40:22;7.00;;;6.20;;
9938;SDS011;5008;50.656;7.188;2023-08-30T07:42:52;7.88;;;6.85;;
9938;SDS011;5008;50.656;7.188;2023-08-30T07:45:19;7.85;;;6.35;;
9938;SDS011;5008;50.656;7.188;2023-08-30T07:47:46;7.25;;;6.57;;
9938;SDS011;5008;50.656;7.188;2023-08-30T07:50:15;7.07;;;5.93;;
9938;SDS011;5008;50.656;7.188;2023-08-30T07:52:42;6.28;;;5.65;;
9938;SDS011;5008;50.656;7.188;2023-08-30T07:55:09;6.30;;;5.70;;
9938;SDS011;5008;50.656;7.188;2023-08-30T07:57:36;6.78;;;5.85;;
9938;SDS011;5008;50.656;7.188;2023-08-30T08:00:05;6.00;;;5.40;;
9938;SDS011;5008;50.656;7.188;2023-08-30T08:02:34;5.07;;;4.63;;
9938;SDS011;5008;50.656;7.188;2023-08-30T08:05:01;5.50;;;5.10;;
9938;SDS011;5008;50.656;7.188;2023-08-30T08:07:28;6.25;;;5.25;;
9938;SDS011;5008;50.656;7.188;2023-08-30T08:09:56;8.02;;;6.20;;
9938;SDS011;5008;50.656;7.188;2023-08-30T08:12:26;6.43;;;5.85;;
9938;SDS011;5008;50.656;7.188;2023-08-30T08:14:53;5.20;;;4.70;;
9938;SDS011;5008;50.656;7.188;2023-08-30T08:17:21;5.07;;;4.53;;
9938;SDS011;5008;50.656;7.188;2023-08-30T08:19:48;4.68;;;4.20;;
9938;SDS011;5008;50.656;7.188;2023-08-30T08:22:15;4.55;;;4.15;;
9938;SDS011;5008;50.656;7.188;2023-08-30T08:24:42;4.85;;;4.38;;
9938;SDS011;5008;50.656;7.188;2023-08-30T08:27:11;4.35;;;3.95;;
9938;SDS011;5008;50.656;7.188;2023-08-30T08:29:38;4.18;;;3.88;;
9938;SDS011;5008;50.656;7.188;2023-08-30T08:32:05;4.93;;;4.35;;
9938;SDS011;5008;50.656;7.188;2023-08-30T08:34:33;4.25;;;3.60;;
9938;SDS011;5008;50.656;7.188;2023-08-30T08:37:00;4.07;;;3.50;;
9938;SDS011;5008;50.656;7.188;2023-08-30T08:39:27;4.28;;;3.88;;
9938;SDS011;5008;50.656;7.188;2023-08-30T08:41:54;4.00;;;3.70;;
9938;SDS011;5008;50.656;7.188;2023-08-30T08:44:21;3.83;;;3.53;;
9938;SDS011;5008;50.656;7.188;2023-08-30T08:46:52;4.40;;;3.75;;
9938;SDS011;5008;50.656;7.188;2023-08-30T08:49:19;4.35;;;3.85;;
9938;SDS011;5008;50.656;7.188;2023-08-30T08:51:48;6.10;;;3.97;;
9938;SDS011;5008;50.656;7.188;2023-08-30T08:54:15;4.15;;;3.60;;
9938;SDS011;5008;50.656;7.188;2023-08-30T08:56:42;4.40;;;3.20;;
9938;SDS011;5008;50.656;7.188;2023-08-30T08:59:10;3.63;;;3.33;;
9938;SDS011;5008;50.656;7.188;2023-08-30T09:01:38;4.65;;;3.13;;
9938;SDS011;5008;50.656;7.188;2023-08-30T09:04:05;3.67;;;2.70;;
9938;SDS011;5008;50.656;7.188;2023-08-30T09:06:33;2.92;;;2.72;;
9938;SDS011;5008;50.656;7.188;2023-08-30T09:09:02;3.50;;;3.20;;
9938;SDS011;5008;50.656;7.188;2023-08-30T09:11:30;4.38;;;3.88;;
9938;SDS011;5008;50.656;7.188;2023-08-30T09:13:57;3.67;;;3.20;;
9938;SDS011;5008;50.656;7.188;2023-08-30T09:16:24;4.75;;;3.20;;
9938;SDS011;5008;50.656;7.188;2023-08-30T09:19:02;4.20;;;3.08;;
9938;SDS011;5008;50.656;7.188;2023-08-30T09:21:30;3.83;;;2.70;;
9938;SDS011;5008;50.656;7.188;2023-08-30T09:23:58;3.25;;;2.90;;
9938;SDS011;5008;50.656;7.188;2023-08-30T09:26:27;4.68;;;2.90;;
9938;SDS011;5008;50.656;7.188;2023-08-30T09:29:00;3.35;;;2.70;;
9938;SDS011;5008;50.656;7.188;2023-08-30T09:31:32;3.05;;;2.78;;
9938;SDS011;5008;50.656;7.188;2023-08-30T09:33:59;3.30;;;3.00;;
9938;SDS011;5008;50.656;7.188;2023-08-30T09:36:33;3.28;;;2.97;;
9938;SDS011;5008;50.656;7.188;2023-08-30T09:39:04;3.15;;;2.65;;
9938;SDS011;5008;50.656;7.188;2023-08-30T09:41:32;2.88;;;2.67;;
9938;SDS011;5008;50.656;7.188;2023-08-30T09:43:59;2.80;;;2.60;;
9938;SDS011;5008;50.656;7.188;2023-08-30T09:46:39;3.05;;;2.45;;
9938;SDS011;5008;50.656;7.188;2023-08-30T09:49:07;3.10;;;2.58;;
9938;SDS011;5008;50.656;7.188;2023-08-30T09:51:36;2.85;;;2.35;;
9938;SDS011;5008;50.656;7.188;2023-08-30T09:54:06;2.58;;;2.38;;
9938;SDS011;5008;50.656;7.188;2023-08-30T09:56:41;2.63;;;2.20;;
9938;SDS011;5008;50.656;7.188;2023-08-30T09:59:09;2.58;;;2.38;;
9938;SDS011;5008;50.656;7.188;2023-08-30T10:01:37;3.17;;;1.85;;
9938;SDS011;5008;50.656;7.188;2023-08-30T10:04:05;3.45;;;2.60;;
9938;SDS011;5008;50.656;7.188;2023-08-30T10:06:35;2.95;;;2.75;;
9938;SDS011;5008;50.656;7.188;2023-08-30T10:09:04;2.58;;;2.38;;
9938;SDS011;5008;50.656;7.188;2023-08-30T10:11:33;2.70;;;2.50;;
9938;SDS011;5008;50.656;7.188;2023-08-30T10:14:03;2.67;;;2.47;;
9938;SDS011;5008;50.656;7.188;2023-08-30T10:16:32;2.83;;;2.58;;
9938;SDS011;5008;50.656;7.188;2023-08-30T10:19:07;2.83;;;2.60;;
9938;SDS011;5008;50.656;7.188;2023-08-30T10:21:38;2.45;;;2.25;;
9938;SDS011;5008;50.656;7.188;2023-08-30T10:24:11;3.50;;;2.95;;
9938;SDS011;5008;50.656;7.188;2023-08-30T10:26:40;2.70;;;2.50;;
9938;SDS011;5008;50.656;7.188;2023-08-30T10:29:15;2.95;;;2.47;;
9938;SDS011;5008;50.656;7.188;2023-08-30T10:31:43;2.95;;;2.70;;
9938;SDS011;5008;50.656;7.188;2023-08-30T10:34:14;2.72;;;2.53;;
9938;SDS011;5008;50.656;7.188;2023-08-30T10:36:56;2.83;;;2.60;;
9938;SDS011;5008;50.656;7.188;2023-08-30T10:39:27;3.00;;;2.70;;
9938;SDS011;5008;50.656;7.188;2023-08-30T10:42:01;2.58;;;2.38;;
9938;SDS011;5008;50.656;7.188;2023-08-30T10:44:45;2.70;;;2.50;;
9938;SDS011;5008;50.656;7.188;2023-08-30T10:47:18;2.97;;;2.67;;
9938;SDS011;5008;50.656;7.188;2023-08-30T10:49:46;2.80;;;2.60;;
9938;SDS011;5008;50.656;7.188;2023-08-30T10:52:14;3.88;;;2.88;;
9938;SDS011;5008;50.656;7.188;2023-08-30T10:54:41;3.22;;;2.92;;
9938;SDS011;5008;50.656;7.188;2023-08-30T10:57:14;3.88;;;3.47;;
9938;SDS011;5008;50.656;7.188;2023-08-30T10:59:55;3.83;;;2.95;;
9938;SDS011;5008;50.656;7.188;2023-08-30T11:02:32;6.32;;;3.13;;
9938;SDS011;5008;50.656;7.188;2023-08-30T11:04:59;3.72;;;2.90;;
9938;SDS011;5008;50.656;7.188;2023-08-30T11:07:27;3.25;;;2.95;;
9938;SDS011;5008;50.656;7.188;2023-08-30T11:09:57;3.78;;;3.20;;
9938;SDS011;5008;50.656;7.188;2023-08-30T11:12:24;4.00;;;2.92;;
9938;SDS011;5008;50.656;7.188;2023-08-30T11:14:53;4.57;;;3.38;;
9938;SDS011;5008;50.656;7.188;2023-08-30T11:17:20;3.28;;;2.97;;
9938;SDS011;5008;50.656;7.188;2023-08-30T11:19:49;3.28;;;2.92;;
9938;SDS011;5008;50.656;7.188;2023-08-30T11:22:16;3.83;;;3.40;;
9938;SDS011;5008;50.656;7.188;2023-08-30T11:24:47;2.92;;;2.72;;
9938;SDS011;5008;50.656;7.188;2023-08-30T11:27:15;3.20;;;2.75;;
9938;SDS011;5008;50.656;7.188;2023-08-30T11:29:43;3.03;;;2.70;;
9938;SDS011;5008;50.656;7.188;2023-08-30T11:32:11;3.03;;;2.80;;
9938;SDS011;5008;50.656;7.188;2023-08-30T11:34:38;2.88;;;2.67;;
9938;SDS011;5008;50.656;7.188;2023-08-30T11:37:05;3.22;;;2.92;;
9938;SDS011;5008;50.656;7.188;2023-08-30T11:39:33;4.32;;;2.80;;
9938;SDS011;5008;50.656;7.188;2023-08-30T11:42:00;2.67;;;2.35;;
9938;SDS011;5008;50.656;7.188;2023-08-30T11:44:32;3.25;;;2.40;;
9938;SDS011;5008;50.656;7.188;2023-08-30T11:46:59;2.90;;;2.70;;
9938;SDS011;5008;50.656;7.188;2023-08-30T11:49:28;3.65;;;2.47;;
9938;SDS011;5008;50.656;7.188;2023-08-30T11:51:55;2.60;;;2.40;;
9938;SDS011;5008;50.656;7.188;2023-08-30T11:54:23;4.15;;;2.40;;
9938;SDS011;5008;50.656;7.188;2023-08-30T11:56:50;3.03;;;2.72;;
9938;SDS011;5008;50.656;7.188;2023-08-30T11:59:19;3.03;;;2.63;;
9938;SDS011;5008;50.656;7.188;2023-08-30T12:01:47;2.40;;;2.20;;
9938;SDS011;5008;50.656;7.188;2023-08-30T12:04:14;3.20;;;2.20;;
9938;SDS011;5008;50.656;7.188;2023-08-30T12:10:04;2.55;;;2.35;;
9938;SDS011;5008;50.656;7.188;2023-08-30T12:12:31;4.85;;;2.45;;
9938;SDS011;5008;50.656;7.188;2023-08-30T12:14:58;3.55;;;2.10;;
9938;SDS011;5008;50.656;7.188;2023-08-30T12:17:24;4.07;;;2.25;;
9938;SDS011;5008;50.656;7.188;2023-08-30T12:19:57;2.90;;;2.50;;
9938;SDS011;5008;50.656;7.188;2023-08-30T12:22:36;2.88;;;2.15;;
9938;SDS011;5008;50.656;7.188;2023-08-30T12:25:14;3.88;;;2.10;;
9938;SDS011;5008;50.656;7.188;2023-08-30T12:27:43;4.68;;;2.45;;
9938;SDS011;5008;50.656;7.188;2023-08-30T12:30:10;3.15;;;2.40;;
9938;SDS011;5008;50.656;7.188;2023-08-30T12:32:37;2.50;;;2.30;;
9938;SDS011;5008;50.656;7.188;2023-08-30T12:35:05;2.80;;;2.60;;
9938;SDS011;5008;50.656;7.188;2023-08-30T12:37:32;2.65;;;2.45;;
9938;SDS011;5008;50.656;7.188;2023-08-30T12:40:00;3.00;;;2.25;;
9938;SDS011;5008;50.656;7.188;2023-08-30T12:42:28;2.65;;;2.45;;
9938;SDS011;5008;50.656;7.188;2023-08-30T12:44:55;3.05;;;2.85;;
9938;SDS011;5008;50.656;7.188;2023-08-30T12:47:22;2.60;;;2.40;;
9938;SDS011;5008;50.656;7.188;2023-08-30T12:49:49;5.13;;;3.00;;
9938;SDS011;5008;50.656;7.188;2023-08-30T12:52:16;2.80;;;2.50;;
9938;SDS011;5008;50.656;7.188;2023-08-30T12:54:43;3.40;;;3.10;;
9938;SDS011;5008;50.656;7.188;2023-08-30T12:57:12;3.28;;;2.80;;
9938;SDS011;5008;50.656;7.188;2023-08-30T12:59:39;4.80;;;2.72;;
9938;SDS011;5008;50.656;7.188;2023-08-30T13:02:06;2.83;;;2.63;;
9938;SDS011;5008;50.656;7.188;2023-08-30T13:04:33;4.05;;;2.67;;
9938;SDS011;5008;50.656;7.188;2023-08-30T13:07:02;3.30;;;2.92;;
9938;SDS011;5008;50.656;7.188;2023-08-30T13:09:30;3.28;;;2.90;;
9938;SDS011;5008;50.656;7.188;2023-08-30T13:11:57;3.42;;;3.08;;
9938;SDS011;5008;50.656;7.188;2023-08-30T13:14:26;3.40;;;3.10;;
9938;SDS011;5008;50.656;7.188;2023-08-30T13:16:53;3.53;;;3.22;;
9938;SDS011;5008;50.656;7.188;2023-08-30T13:19:20;3.10;;;2.90;;
9938;SDS011;5008;50.656;7.188;2023-08-30T13:21:52;2.75;;;2.53;;
9938;SDS011;5008;50.656;7.188;2023-08-30T13:24:19;3.30;;;2.88;;
9938;SDS011;5008;50.656;7.188;2023-08-30T13:26:46;3.35;;;3.05;;
9938;SDS011;5008;50.656;7.188;2023-08-30T13:29:15;3.50;;;3.13;;
9938;SDS011;5008;50.656;7.188;2023-08-30T13:31:43;5.63;;;4.55;;
9938;SDS011;5008;50.656;7.188;2023-08-30T13:34:10;5.85;;;5.30;;
9938;SDS011;5008;50.656;7.188;2023-08-30T13:36:37;5.15;;;4.63;;
9938;SDS011;5008;50.656;7.188;2023-08-30T13:39:04;4.20;;;3.65;;
9938;SDS011;5008;50.656;7.188;2023-08-30T13:41:31;4.32;;;3.92;;
9938;SDS011;5008;50.656;7.188;2023-08-30T13:43:58;6.80;;;4.07;;
9938;SDS011;5008;50.656;7.188;2023-08-30T13:46:26;3.25;;;2.95;;
9938;SDS011;5008;50.656;7.188;2023-08-30T13:49:00;3.00;;;2.80;;
9938;SDS011;5008;50.656;7.188;2023-08-30T13:51:27;3.00;;;2.53;;
9938;SDS011;5008;50.656;7.188;2023-08-30T13:53:54;2.92;;;2.47;;
9938;SDS011;5008;50.656;7.188;2023-08-30T13:56:21;2.75;;;2.55;;
9938;SDS011;5008;50.656;7.188;2023-08-30T13:58:49;2.70;;;2.50;;
9938;SDS011;5008;50.656;7.188;2023-08-30T14:01:16;3.22;;;2.60;;
9938;SDS011;5008;50.656;7.188;2023-08-30T14:03:43;2.80;;;2.40;;
9938;SDS011;5008;50.656;7.188;2023-08-30T14:06:11;2.85;;;2.63;;
9938;SDS011;5008;50.656;7.188;2023-08-30T14:08:38;3.15;;;2.85;;
9938;SDS011;5008;50.656;7.188;2023-08-30T14:11:05;3.10;;;2.70;;
9938;SDS011;5008;50.656;7.188;2023-08-30T14:13:34;4.10;;;2.95;;
9938;SDS011;5008;50.656;7.188;2023-08-30T14:16:00;2.60;;;2.40;;
9938;SDS011;5008;50.656;7.188;2023-08-30T14:18:28;2.70;;;2.50;;
9938;SDS011;5008;50.656;7.188;2023-08-30T14:20:55;2.70;;;2.50;;
9938;SDS011;5008;50.656;7.188;2023-08-30T14:23:25;2.58;;;2.38;;
9938;SDS011;5008;50.656;7.188;2023-08-30T14:25:55;2.60;;;2.40;;
9938;SDS011;5008;50.656;7.188;2023-08-30T14:28:23;3.63;;;2.97;;
9938;SDS011;5008;50.656;7.188;2023-08-30T14:30:50;3.85;;;2.97;;
9938;SDS011;5008;50.656;7.188;2023-08-30T14:33:17;3.22;;;2.92;;
9938;SDS011;5008;50.656;7.188;2023-08-30T14:35:44;3.20;;;2.88;;
9938;SDS011;5008;50.656;7.188;2023-08-30T14:38:11;3.63;;;2.85;;
9938;SDS011;5008;50.656;7.188;2023-08-30T14:40:40;2.58;;;2.33;;
9938;SDS011;5008;50.656;7.188;2023-08-30T14:43:07;2.45;;;2.25;;
9938;SDS011;5008;50.656;7.188;2023-08-30T14:45:33;2.50;;;2.30;;
9938;SDS011;5008;50.656;7.188;2023-08-30T14:48:00;2.67;;;2.45;;
9938;SDS011;5008;50.656;7.188;2023-08-30T14:50:27;2.28;;;2.17;;
9938;SDS011;5008;50.656;7.188;2023-08-30T14:52:54;4.63;;;2.20;;
9938;SDS011;5008;50.656;7.188;2023-08-30T14:55:21;3.20;;;1.77;;
9938;SDS011;5008;50.656;7.188;2023-08-30T14:57:55;1.60;;;1.50;;
9938;SDS011;5008;50.656;7.188;2023-08-30T15:00:22;1.80;;;1.70;;
9938;SDS011;5008;50.656;7.188;2023-08-30T15:02:49;2.03;;;1.45;;
9938;SDS011;5008;50.656;7.188;2023-08-30T15:05:17;1.55;;;1.45;;
9938;SDS011;5008;50.656;7.188;2023-08-30T15:07:44;1.40;;;1.38;;
9938;SDS011;5008;50.656;7.188;2023-08-30T15:10:11;1.60;;;1.50;;
9938;SDS011;5008;50.656;7.188;2023-08-30T15:12:38;1.90;;;1.40;;
9938;SDS011;5008;50.656;7.188;2023-08-30T15:15:07;1.40;;;1.30;;
9938;SDS011;5008;50.656;7.188;2023-08-30T15:17:35;1.85;;;1.73;;
9938;SDS011;5008;50.656;7.188;2023-08-30T15:20:02;1.70;;;1.60;;
9938;SDS011;5008;50.656;7.188;2023-08-30T15:22:32;3.17;;;1.73;;
9938;SDS011;5008;50.656;7.188;2023-08-30T15:24:59;2.13;;;1.77;;
9938;SDS011;5008;50.656;7.188;2023-08-30T15:27:27;1.65;;;1.55;;
9938;SDS011;5008;50.656;7.188;2023-08-30T15:29:54;2.63;;;1.80;;
9938;SDS011;5008;50.656;7.188;2023-08-30T15:32:22;2.35;;;2.03;;
9938;SDS011;5008;50.656;7.188;2023-08-30T15:34:49;2.67;;;2.20;;
9938;SDS011;5008;50.656;7.188;2023-08-30T15:37:16;3.22;;;2.58;;
9938;SDS011;5008;50.656;7.188;2023-08-30T15:39:43;2.28;;;2.08;;
9938;SDS011;5008;50.656;7.188;2023-08-30T15:42:11;2.80;;;2.10;;
9938;SDS011;5008;50.656;7.188;2023-08-30T15:44:37;4.40;;;2.15;;
9938;SDS011;5008;50.656;7.188;2023-08-30T15:47:04;2.92;;;2.10;;
9938;SDS011;5008;50.656;7.188;2023-08-30T15:49:33;2.53;;;2.00;;
9938;SDS011;5008;50.656;7.188;2023-08-30T15:52:04;1.52;;;1.40;;
9938;SDS011;5008;50.656;7.188;2023-08-30T15:54:31;1.92;;;1.80;;
9938;SDS011;5008;50.656;7.188;2023-08-30T15:56:58;1.88;;;1.77;;
9938;SDS011;5008;50.656;7.188;2023-08-30T15:59:24;2.40;;;1.90;;
9938;SDS011;5008;50.656;7.188;2023-08-30T16:01:51;1.90;;;1.80;;
9938;SDS011;5008;50.656;7.188;2023-08-30T16:04:18;2.65;;;1.58;;
9938;SDS011;5008;50.656;7.188;2023-08-30T16:06:46;2.60;;;1.95;;
9938;SDS011;5008;50.656;7.188;2023-08-30T16:09:13;2.97;;;1.83;;
9938;SDS011;5008;50.656;7.188;2023-08-30T16:11:40;2.10;;;1.90;;
9938;SDS011;5008;50.656;7.188;2023-08-30T16:14:07;3.40;;;1.98;;
9938;SDS011;5008;50.656;7.188;2023-08-30T16:16:35;2.20;;;2.00;;
9938;SDS011;5008;50.656;7.188;2023-08-30T16:19:02;2.88;;;2.20;;
9938;SDS011;5008;50.656;7.188;2023-08-30T16:21:29;2.03;;;1.88;;
9938;SDS011;5008;50.656;7.188;2023-08-30T16:23:58;2.15;;;2.00;;
9938;SDS011;5008;50.656;7.188;2023-08-30T16:26:25;2.40;;;2.13;;
9938;SDS011;5008;50.656;7.188;2023-08-30T16:28:52;2.38;;;2.17;;
9938;SDS011;5008;50.656;7.188;2023-08-30T16:31:19;2.47;;;2.28;;
9938;SDS011;5008;50.656;7.188;2023-08-30T16:33:50;3.60;;;2.35;;
9938;SDS011;5008;50.656;7.188;2023-08-30T16:36:16;2.72;;;2.28;;
9938;SDS011;5008;50.656;7.188;2023-08-30T16:38:43;3.20;;;2.35;;
9938;SDS011;5008;50.656;7.188;2023-08-30T16:41:11;2.70;;;2.47;;
9938;SDS011;5008;50.656;7.188;2023-08-30T16:43:38;3.28;;;2.80;;
9938;SDS011;5008;50.656;7.188;2023-08-30T16:46:05;3.95;;;2.63;;
9938;SDS011;5008;50.656;7.188;2023-08-30T16:48:31;2.80;;;2.60;;
9938;SDS011;5008;50.656;7.188;2023-08-30T16:50:58;3.13;;;2.83;;
9938;SDS011;5008;50.656;7.188;2023-08-30T16:53:25;3.97;;;3.08;;
9938;SDS011;5008;50.656;7.188;2023-08-30T16:55:52;3.10;;;2.90;;
9938;SDS011;5008;50.656;7.188;2023-08-30T16:58:20;3.25;;;2.85;;
9938;SDS011;5008;50.656;7.188;2023-08-30T17:00:47;2.95;;;2.63;;
9938;SDS011;5008;50.656;7.188;2023-08-30T17:03:14;3.20;;;2.80;;
9938;SDS011;5008;50.656;7.188;2023-08-30T17:05:41;7.40;;;6.70;;
9938;SDS011;5008;50.656;7.188;2023-08-30T17:08:08;3.03;;;2.72;;
9938;SDS011;5008;50.656;7.188;2023-08-30T17:10:35;3.25;;;2.83;;
9938;SDS011;5008;50.656;7.188;2023-08-30T17:13:01;2.92;;;2.72;;
9938;SDS011;5008;50.656;7.188;2023-08-30T17:15:30;3.17;;;2.90;;
9938;SDS011;5008;50.656;7.188;2023-08-30T17:17:57;3.58;;;2.90;;
9938;SDS011;5008;50.656;7.188;2023-08-30T17:20:23;3.20;;;3.00;;
9938;SDS011;5008;50.656;7.188;2023-08-30T17:22:50;3.08;;;2.80;;
9938;SDS011;5008;50.656;7.188;2023-08-30T17:25:17;4.13;;;2.92;;
9938;SDS011;5008;50.656;7.188;2023-08-30T17:27:44;3.70;;;3.40;;
9938;SDS011;5008;50.656;7.188;2023-08-30T17:30:12;5.38;;;3.08;;
9938;SDS011;5008;50.656;7.188;2023-08-30T17:32:40;3.40;;;3.10;;
9938;SDS011;5008;50.656;7.188;2023-08-30T17:35:08;4.10;;;3.75;;
9938;SDS011;5008;50.656;7.188;2023-08-30T17:37:35;3.85;;;3.53;;
9938;SDS011;5008;50.656;7.188;2023-08-30T17:40:05;4.28;;;3.10;;
9938;SDS011;5008;50.656;7.188;2023-08-30T17:42:33;3.15;;;2.92;;
9938;SDS011;5008;50.656;7.188;2023-08-30T17:44:59;4.10;;;3.80;;
9938;SDS011;5008;50.656;7.188;2023-08-30T17:47:26;3.42;;;3.13;;
9938;SDS011;5008;50.656;7.188;2023-08-30T17:49:54;3.55;;;3.05;;
9938;SDS011;5008;50.656;7.188;2023-08-30T17:52:21;3.50;;;3.20;;
9938;SDS011;5008;50.656;7.188;2023-08-30T17:54:48;4.10;;;3.50;;
9938;SDS011;5008;50.656;7.188;2023-08-30T17:57:15;3.60;;;3.30;;
9938;SDS011;5008;50.656;7.188;2023-08-30T17:59:42;4.65;;;3.50;;
9938;SDS011;5008;50.656;7.188;2023-08-30T18:02:09;3.88;;;3.58;;
9938;SDS011;5008;50.656;7.188;2023-08-30T18:04:36;5.38;;;3.60;;
9938;SDS011;5008;50.656;7.188;2023-08-30T18:07:04;3.65;;;3.35;;
9938;SDS011;5008;50.656;7.188;2023-08-30T18:09:31;4.03;;;3.63;;
9938;SDS011;5008;50.656;7.188;2023-08-30T18:11:58;4.03;;;3.72;;
9938;SDS011;5008;50.656;7.188;2023-08-30T18:14:28;4.95;;;3.55;;
9938;SDS011;5008;50.656;7.188;2023-08-30T18:16:55;3.78;;;3.47;;
9938;SDS011;5008;50.656;7.188;2023-08-30T18:19:22;4.10;;;3.70;;
9938;SDS011;5008;50.656;7.188;2023-08-30T18:21:49;4.30;;;3.30;;
9938;SDS011;5008;50.656;7.188;2023-08-30T18:24:17;4.32;;;3.92;;
9938;SDS011;5008;50.656;7.188;2023-08-30T18:26:47;4.22;;;3.40;;
9938;SDS011;5008;50.656;7.188;2023-08-30T18:29:15;3.83;;;3.45;;
9938;SDS011;5008;50.656;7.188;2023-08-30T18:31:44;3.90;;;3.60;;
9938;SDS011;5008;50.656;7.188;2023-08-30T18:34:11;4.47;;;3.60;;
9938;SDS011;5008;50.656;7.188;2023-08-30T18:36:38;5.28;;;3.90;;
9938;SDS011;5008;50.656;7.188;2023-08-30T18:39:06;4.18;;;3.75;;
9938;SDS011;5008;50.656;7.188;2023-08-30T18:41:34;3.60;;;3.22;;
9938;SDS011;5008;50.656;7.188;2023-08-30T18:44:01;3.20;;;2.95;;
9938;SDS011;5008;50.656;7.188;2023-08-30T18:46:28;3.20;;;2.88;;
9938;SDS011;5008;50.656;7.188;2023-08-30T18:48:55;2.95;;;2.70;;
9938;SDS011;5008;50.656;7.188;2023-08-30T18:51:22;3.20;;;2.90;;
9938;SDS011;5008;50.656;7.188;2023-08-30T18:53:49;3.42;;;3.13;;
9938;SDS011;5008;50.656;7.188;2023-08-30T18:56:16;3.15;;;2.85;;
9938;SDS011;5008;50.656;7.188;2023-08-30T18:58:45;2.83;;;2.60;;
9938;SDS011;5008;50.656;7.188;2023-08-30T19:01:12;4.53;;;2.63;;
9938;SDS011;5008;50.656;7.188;2023-08-30T19:03:40;3.17;;;2.65;;
9938;SDS011;5008;50.656;7.188;2023-08-30T19:06:07;3.40;;;2.55;;
9938;SDS011;5008;50.656;7.188;2023-08-30T19:08:35;5.00;;;2.53;;
9938;SDS011;5008;50.656;7.188;2023-08-30T19:11:02;4.60;;;2.90;;
9938;SDS011;5008;50.656;7.188;2023-08-30T19:13:31;3.55;;;2.53;;
9938;SDS011;5008;50.656;7.188;2023-08-30T19:16:03;4.20;;;3.00;;
9938;SDS011;5008;50.656;7.188;2023-08-30T19:18:35;2.85;;;2.65;;
9938;SDS011;5008;50.656;7.188;2023-08-30T19:21:05;5.10;;;3.33;;
9938;SDS011;5008;50.656;7.188;2023-08-30T19:23:33;2.95;;;2.42;;
9938;SDS011;5008;50.656;7.188;2023-08-30T19:25:59;3.20;;;2.90;;
9938;SDS011;5008;50.656;7.188;2023-08-30T19:28:27;3.33;;;2.97;;